sensor_id;sensor_type;location;lat;lon;timestamp;pressure;altitude;pressure_sealevel;temperature;humidity
40285;BME280;25997;50.214;19.354;2023-02-15T00:01:07;99465.09;;;3.50;57.38
40285;BME280;25997;50.214;19.354;2023-02-15T00:04:13;99458.31;;;3.40;57.30
40285;BME280;25997;50.214;19.354;2023-02-15T00:07:18;99457.63;;;3.31;57.49
40285;BME280;25997;50.214;19.354;2023-02-15T00:10:21;99448.69;;;3.27;57.59
40285;BME280;25997;50.214;19.354;2023-02-15T00:13:24;99449.28;;;3.35;57.67
40285;BME280;25997;50.214;19.354;2023-02-15T00:16:27;99446.03;;;3.37;57.26
40285;BME280;25997;50.214;19.354;2023-02-15T00:19:29;99444.75;;;3.32;57.48
40285;BME280;25997;50.214;19.354;2023-02-15T00:22:33;99440.13;;;3.40;57.57
40285;BME280;25997;50.214;19.354;2023-02-15T00:25:36;99441.63;;;3.48;57.52
40285;BME280;25997;50.214;19.354;2023-02-15T00:28:38;99432.63;;;3.55;57.33
40285;BME280;25997;50.214;19.354;2023-02-15T00:31:41;99428.53;;;3.58;57.36
40285;BME280;25997;50.214;19.354;2023-02-15T00:34:44;99426.09;;;3.60;57.35
40285;BME280;25997;50.214;19.354;2023-02-15T00:37:48;99424.25;;;3.59;57.30
40285;BME280;25997;50.214;19.354;2023-02-15T00:40:52;99424.03;;;3.56;57.26
40285;BME280;25997;50.214;19.354;2023-02-15T00:43:55;99424.94;;;3.56;57.31
40285;BME280;25997;50.214;19.354;2023-02-15T00:46:58;99421.66;;;3.59;57.23
40285;BME280;25997;50.214;19.354;2023-02-15T00:50:00;99418.41;;;3.61;57.38
40285;BME280;25997;50.214;19.354;2023-02-15T00:53:05;99407.66;;;3.57;57.04
40285;BME280;25997;50.214;19.354;2023-02-15T00:56:08;99410.03;;;3.54;57.36
40285;BME280;25997;50.214;19.354;2023-02-15T00:59:11;99402.91;;;3.51;57.39
40285;BME280;25997;50.214;19.354;2023-02-15T01:02:13;99402.91;;;3.51;57.28
40285;BME280;25997;50.214;19.354;2023-02-15T01:05:16;99400.19;;;3.50;57.13
40285;BME280;25997;50.214;19.354;2023-02-15T01:08:20;99410.38;;;3.47;57.45
40285;BME280;25997;50.214;19.354;2023-02-15T01:11:24;99412.16;;;3.47;57.02
40285;BME280;25997;50.214;19.354;2023-02-15T01:14:27;99415.09;;;3.40;57.19
40285;BME280;25997;50.214;19.354;2023-02-15T01:17:30;99410.81;;;3.41;57.29
40285;BME280;25997;50.214;19.354;2023-02-15T01:20:35;99414.16;;;3.28;57.02
40285;BME280;25997;50.214;19.354;2023-02-15T01:23:42;99406.69;;;3.21;57.26
40285;BME280;25997;50.214;19.354;2023-02-15T01:26:44;99404.22;;;3.23;57.53
40285;BME280;25997;50.214;19.354;2023-02-15T01:29:47;99398.94;;;3.33;57.28
40285;BME280;25997;50.214;19.354;2023-02-15T01:32:49;99393.09;;;3.35;57.02
40285;BME280;25997;50.214;19.354;2023-02-15T01:35:56;99384.25;;;3.33;56.93
40285;BME280;25997;50.214;19.354;2023-02-15T01:39:00;99386.19;;;3.36;57.36
40285;BME280;25997;50.214;19.354;2023-02-15T01:42:09;99385.09;;;3.44;57.17
40285;BME280;25997;50.214;19.354;2023-02-15T01:45:20;99385.41;;;3.37;56.76
40285;BME280;25997;50.214;19.354;2023-02-15T01:48:26;99382.00;;;3.26;57.46
40285;BME280;25997;50.214;19.354;2023-02-15T01:51:32;99387.19;;;3.26;57.64
40285;BME280;25997;50.214;19.354;2023-02-15T01:54:38;99368.34;;;3.29;57.51
40285;BME280;25997;50.214;19.354;2023-02-15T01:57:43;99372.19;;;3.34;57.46
40285;BME280;25997;50.214;19.354;2023-02-15T02:00:48;99375.69;;;3.34;57.39
40285;BME280;25997;50.214;19.354;2023-02-15T02:03:57;99375.25;;;3.28;57.42
40285;BME280;25997;50.214;19.354;2023-02-15T02:07:06;99369.47;;;3.21;57.38
40285;BME280;25997;50.214;19.354;2023-02-15T02:10:13;99354.09;;;3.12;57.70
40285;BME280;25997;50.214;19.354;2023-02-15T02:13:16;99355.69;;;3.10;57.81
40285;BME280;25997;50.214;19.354;2023-02-15T02:16:21;99344.94;;;3.06;57.65
40285;BME280;25997;50.214;19.354;2023-02-15T02:19:50;99342.47;;;3.07;57.58
40285;BME280;25997;50.214;19.354;2023-02-15T02:23:28;99338.06;;;3.06;57.52
40285;BME280;25997;50.214;19.354;2023-02-15T02:30:42;99342.25;;;3.04;57.73
40285;BME280;25997;50.214;19.354;2023-02-15T02:33:56;99335.56;;;2.96;57.89
40285;BME280;25997;50.214;19.354;2023-02-15T02:37:08;99333.09;;;2.98;57.87
40285;BME280;25997;50.214;19.354;2023-02-15T02:40:20;99323.59;;;2.98;57.76
40285;BME280;25997;50.214;19.354;2023-02-15T02:43:30;99331.28;;;2.97;58.00
40285;BME280;25997;50.214;19.354;2023-02-15T02:46:39;99323.59;;;2.98;58.02
40285;BME280;25997;50.214;19.354;2023-02-15T02:49:46;99315.47;;;2.94;57.78
40285;BME280;25997;50.214;19.354;2023-02-15T02:52:50;99315.53;;;2.84;58.05
40285;BME280;25997;50.214;19.354;2023-02-15T02:55:55;99310.34;;;2.84;57.71
40285;BME280;25997;50.214;19.354;2023-02-15T02:59:02;99303.34;;;2.71;58.23
40285;BME280;25997;50.214;19.354;2023-02-15T03:02:10;99298.00;;;2.69;58.37
40285;BME280;25997;50.214;19.354;2023-02-15T03:05:19;99305.03;;;2.70;58.29
40285;BME280;25997;50.214;19.354;2023-02-15T03:08:26;99300.41;;;2.66;58.50
40285;BME280;25997;50.214;19.354;2023-02-15T03:11:31;99293.69;;;2.58;58.40
40285;BME280;25997;50.214;19.354;2023-02-15T03:14:35;99295.94;;;2.54;58.67
40285;BME280;25997;50.214;19.354;2023-02-15T03:17:42;99290.63;;;2.52;58.48
40285;BME280;25997;50.214;19.354;2023-02-15T03:20:48;99285.47;;;2.52;58.63
40285;BME280;25997;50.214;19.354;2023-02-15T03:23:54;99279.59;;;2.55;58.49
40285;BME280;25997;50.214;19.354;2023-02-15T03:27:00;99286.22;;;2.51;58.58
40285;BME280;25997;50.214;19.354;2023-02-15T03:30:07;99292.06;;;2.49;58.78
40285;BME280;25997;50.214;19.354;2023-02-15T03:33:11;99294.56;;;2.47;58.79
40285;BME280;25997;50.214;19.354;2023-02-15T03:36:19;99298.63;;;2.44;58.81
40285;BME280;25997;50.214;19.354;2023-02-15T03:39:30;99298.91;;;2.37;58.91
40285;BME280;25997;50.214;19.354;2023-02-15T03:42:37;99306.34;;;2.32;59.01
40285;BME280;25997;50.214;19.354;2023-02-15T03:45:49;99303.84;;;2.34;58.97
40285;BME280;25997;50.214;19.354;2023-02-15T03:48:58;99302.59;;;2.29;59.08
40285;BME280;25997;50.214;19.354;2023-02-15T03:52:06;99302.16;;;2.34;59.12
40285;BME280;25997;50.214;19.354;2023-02-15T03:55:11;99295.66;;;2.39;58.87
40285;BME280;25997;50.214;19.354;2023-02-15T03:58:13;99298.00;;;2.36;59.10
40285;BME280;25997;50.214;19.354;2023-02-15T04:01:35;99301.63;;;2.38;59.15
40285;BME280;25997;50.214;19.354;2023-02-15T04:04:59;99298.25;;;2.39;59.08
40285;BME280;25997;50.214;19.354;2023-02-15T04:08:03;99295.31;;;2.35;59.10
40285;BME280;25997;50.214;19.354;2023-02-15T04:11:06;99294.94;;;2.30;59.12
40285;BME280;25997;50.214;19.354;2023-02-15T04:14:07;99299.78;;;2.26;59.30
40285;BME280;25997;50.214;19.354;2023-02-15T04:17:23;99295.59;;;2.28;59.19
40285;BME280;25997;50.214;19.354;2023-02-15T04:20:26;99293.47;;;2.34;59.14
40285;BME280;25997;50.214;19.354;2023-02-15T04:23:47;99300.59;;;2.36;59.15
40285;BME280;25997;50.214;19.354;2023-02-15T04:27:08;99307.00;;;2.30;59.26
40285;BME280;25997;50.214;19.354;2023-02-15T04:30:12;99304.88;;;2.36;59.31
40285;BME280;25997;50.214;19.354;2023-02-15T04:33:15;99298.84;;;2.25;59.49
40285;BME280;25997;50.214;19.354;2023-02-15T04:36:18;99304.22;;;2.17;59.78
40285;BME280;25997;50.214;19.354;2023-02-15T04:39:21;99307.06;;;2.20;59.57
40285;BME280;25997;50.214;19.354;2023-02-15T04:42:24;99302.53;;;2.17;59.63
40285;BME280;25997;50.214;19.354;2023-02-15T04:45:27;99301.34;;;2.24;59.50
40285;BME280;25997;50.214;19.354;2023-02-15T04:48:29;99309.59;;;2.30;59.74
40285;BME280;25997;50.214;19.354;2023-02-15T04:51:34;99293.28;;;2.31;59.38
40285;BME280;25997;50.214;19.354;2023-02-15T04:54:38;99295.34;;;2.25;59.70
40285;BME280;25997;50.214;19.354;2023-02-15T04:57:40;99296.53;;;2.28;59.75
40285;BME280;25997;50.214;19.354;2023-02-15T05:00:43;99289.66;;;2.29;59.47
40285;BME280;25997;50.214;19.354;2023-02-15T05:03:45;99292.75;;;2.25;59.71
40285;BME280;25997;50.214;19.354;2023-02-15T05:06:48;99282.28;;;2.23;59.67
40285;BME280;25997;50.214;19.354;2023-02-15T05:09:52;99286.19;;;2.18;59.70
40285;BME280;25997;50.214;19.354;2023-02-15T05:12:54;99293.97;;;2.18;59.65
40285;BME280;25997;50.214;19.354;2023-02-15T05:15:57;99294.22;;;2.21;59.83
40285;BME280;25997;50.214;19.354;2023-02-15T05:19:00;99289.81;;;2.20;59.72
40285;BME280;25997;50.214;19.354;2023-02-15T05:22:03;99291.75;;;2.23;59.85
40285;BME280;25997;50.214;19.354;2023-02-15T05:25:08;99293.22;;;2.19;59.81
40285;BME280;25997;50.214;19.354;2023-02-15T05:28:28;99297.13;;;2.14;59.74
40285;BME280;25997;50.214;19.354;2023-02-15T05:31:31;99287.56;;;2.13;59.84
40285;BME280;25997;50.214;19.354;2023-02-15T05:34:33;99282.47;;;2.15;59.77
40285;BME280;25997;50.214;19.354;2023-02-15T05:37:36;99293.63;;;2.14;59.98
40285;BME280;25997;50.214;19.354;2023-02-15T05:40:40;99291.16;;;2.15;59.88
40285;BME280;25997;50.214;19.354;2023-02-15T05:43:42;99299.28;;;2.20;59.76
40285;BME280;25997;50.214;19.354;2023-02-15T05:46:45;99286.00;;;2.27;60.25
40285;BME280;25997;50.214;19.354;2023-02-15T05:49:47;99286.16;;;2.28;59.76
40285;BME280;25997;50.214;19.354;2023-02-15T05:52:50;99279.81;;;2.25;59.82
40285;BME280;25997;50.214;19.354;2023-02-15T05:55:54;99289.44;;;2.16;60.27
40285;BME280;25997;50.214;19.354;2023-02-15T05:58:59;99296.44;;;2.17;60.08
40285;BME280;25997;50.214;19.354;2023-02-15T06:02:02;99292.09;;;2.27;60.06
40285;BME280;25997;50.214;19.354;2023-02-15T06:05:06;99301.75;;;2.40;59.91
40285;BME280;25997;50.214;19.354;2023-02-15T06:08:09;99294.00;;;2.40;59.76
40285;BME280;25997;50.214;19.354;2023-02-15T06:11:13;99301.75;;;2.40;60.07
40285;BME280;25997;50.214;19.354;2023-02-15T06:14:16;99300.19;;;2.42;59.82
40285;BME280;25997;50.214;19.354;2023-02-15T06:17:18;99308.53;;;2.49;60.00
40285;BME280;25997;50.214;19.354;2023-02-15T06:20:22;99304.97;;;2.59;59.81
40285;BME280;25997;50.214;19.354;2023-02-15T06:23:25;99312.50;;;2.56;59.93
40285;BME280;25997;50.214;19.354;2023-02-15T06:26:29;99310.06;;;2.57;59.91
40285;BME280;25997;50.214;19.354;2023-02-15T06:29:31;99301.13;;;2.54;60.16
40285;BME280;25997;50.214;19.354;2023-02-15T06:32:33;99307.88;;;2.52;59.86
40285;BME280;25997;50.214;19.354;2023-02-15T06:35:36;99305.03;;;2.49;59.79
40285;BME280;25997;50.214;19.354;2023-02-15T06:38:38;99304.72;;;2.44;60.16
40285;BME280;25997;50.214;19.354;2023-02-15T06:41:42;99305.84;;;2.48;60.30
40285;BME280;25997;50.214;19.354;2023-02-15T06:44:45;99301.97;;;2.43;59.94
40285;BME280;25997;50.214;19.354;2023-02-15T06:47:48;99313.91;;;2.41;60.32
40285;BME280;25997;50.214;19.354;2023-02-15T06:50:50;99307.06;;;2.41;60.19
40285;BME280;25997;50.214;19.354;2023-02-15T06:53:53;99301.63;;;2.38;60.25
40285;BME280;25997;50.214;19.354;2023-02-15T06:56:57;99308.84;;;2.42;60.13
40285;BME280;25997;50.214;19.354;2023-02-15T06:59:59;99305.22;;;2.40;60.12
40285;BME280;25997;50.214;19.354;2023-02-15T07:03:02;99307.41;;;2.46;60.12
40285;BME280;25997;50.214;19.354;2023-02-15T07:06:05;99307.31;;;2.56;59.96
40285;BME280;25997;50.214;19.354;2023-02-15T07:09:09;99306.56;;;2.57;59.99
40285;BME280;25997;50.214;19.354;2023-02-15T07:12:13;99304.41;;;2.63;60.13
40285;BME280;25997;50.214;19.354;2023-02-15T07:15:33;99296.22;;;2.68;59.98
40285;BME280;25997;50.214;19.354;2023-02-15T07:18:35;99307.06;;;2.74;59.99
40285;BME280;25997;50.214;19.354;2023-02-15T07:21:38;99296.94;;;2.78;59.77
40285;BME280;25997;50.214;19.354;2023-02-15T07:24:40;99297.69;;;2.77;59.99
40285;BME280;25997;50.214;19.354;2023-02-15T07:27:44;99286.91;;;2.82;59.78
40285;BME280;25997;50.214;19.354;2023-02-15T07:30:47;99289.19;;;2.89;59.71
40285;BME280;25997;50.214;19.354;2023-02-15T07:33:50;99291.34;;;2.95;59.53
40285;BME280;25997;50.214;19.354;2023-02-15T07:36:52;99287.97;;;2.96;59.77
40285;BME280;25997;50.214;19.354;2023-02-15T07:39:54;99292.97;;;3.04;59.56
40285;BME280;25997;50.214;19.354;2023-02-15T07:42:59;99290.38;;;3.04;59.59
40285;BME280;25997;50.214;19.354;2023-02-15T07:46:02;99284.69;;;2.98;59.38
40285;BME280;25997;50.214;19.354;2023-02-15T07:49:06;99293.97;;;3.06;59.52
40285;BME280;25997;50.214;19.354;2023-02-15T07:52:09;99282.78;;;3.07;59.33
40285;BME280;25997;50.214;19.354;2023-02-15T07:55:12;99287.75;;;3.16;59.37
40285;BME280;25997;50.214;19.354;2023-02-15T07:58:16;99285.19;;;3.27;59.45
40285;BME280;25997;50.214;19.354;2023-02-15T08:01:20;99289.03;;;3.32;59.40
40285;BME280;25997;50.214;19.354;2023-02-15T08:04:23;99277.63;;;3.42;59.18
40285;BME280;25997;50.214;19.354;2023-02-15T08:07:26;99281.59;;;3.49;58.82
40285;BME280;25997;50.214;19.354;2023-02-15T08:10:28;99282.25;;;3.58;58.89
40285;BME280;25997;50.214;19.354;2023-02-15T08:13:48;99274.00;;;3.75;58.63
40285;BME280;25997;50.214;19.354;2023-02-15T08:16:58;99266.06;;;3.85;58.52
40285;BME280;25997;50.214;19.354;2023-02-15T08:20:03;99268.66;;;3.85;58.51
40285;BME280;25997;50.214;19.354;2023-02-15T08:23:06;99263.09;;;3.92;58.46
40285;BME280;25997;50.214;19.354;2023-02-15T08:26:09;99261.75;;;3.97;58.34
40285;BME280;25997;50.214;19.354;2023-02-15T08:29:14;99255.50;;;4.06;58.39
40285;BME280;25997;50.214;19.354;2023-02-15T08:32:16;99253.53;;;4.15;58.19
40285;BME280;25997;50.214;19.354;2023-02-15T08:35:22;99251.97;;;4.17;57.80
40285;BME280;25997;50.214;19.354;2023-02-15T08:38:24;99248.19;;;4.26;57.69
40285;BME280;25997;50.214;19.354;2023-02-15T08:41:28;99257.09;;;4.29;57.57
40285;BME280;25997;50.214;19.354;2023-02-15T08:44:33;99255.22;;;4.27;57.54
40285;BME280;25997;50.214;19.354;2023-02-15T08:47:35;99246.69;;;4.29;57.44
40285;BME280;25997;50.214;19.354;2023-02-15T08:50:38;99248.47;;;4.42;57.57
40285;BME280;25997;50.214;19.354;2023-02-15T08:53:42;99252.72;;;4.53;57.42
40285;BME280;25997;50.214;19.354;2023-02-15T08:56:45;99249.16;;;4.64;57.21
40285;BME280;25997;50.214;19.354;2023-02-15T08:59:49;99248.91;;;4.72;56.81
40285;BME280;25997;50.214;19.354;2023-02-15T09:02:51;99249.56;;;4.70;56.54
40285;BME280;25997;50.214;19.354;2023-02-15T09:05:58;99248.47;;;4.91;57.01
40285;BME280;25997;50.214;19.354;2023-02-15T09:09:01;99248.06;;;5.11;56.47
40285;BME280;25997;50.214;19.354;2023-02-15T09:12:05;99240.38;;;5.26;55.86
40285;BME280;25997;50.214;19.354;2023-02-15T09:15:09;99237.06;;;5.15;55.15
40285;BME280;25997;50.214;19.354;2023-02-15T09:18:12;99233.75;;;5.05;55.23
40285;BME280;25997;50.214;19.354;2023-02-15T09:21:19;99231.34;;;4.95;55.15
40285;BME280;25997;50.214;19.354;2023-02-15T09:24:22;99243.63;;;4.84;55.07
40285;BME280;25997;50.214;19.354;2023-02-15T09:27:25;99229.13;;;4.87;55.13
40285;BME280;25997;50.214;19.354;2023-02-15T09:30:29;99228.34;;;5.15;54.65
40285;BME280;25997;50.214;19.354;2023-02-15T09:33:33;99228.56;;;5.57;53.51
40285;BME280;25997;50.214;19.354;2023-02-15T09:36:38;99216.00;;;5.78;52.98
40285;BME280;25997;50.214;19.354;2023-02-15T09:39:43;99214.84;;;5.87;52.73
40285;BME280;25997;50.214;19.354;2023-02-15T09:43:15;99210.50;;;6.01;51.95
40285;BME280;25997;50.214;19.354;2023-02-15T09:46:37;99202.28;;;6.08;52.05
40285;BME280;25997;50.214;19.354;2023-02-15T09:49:53;99196.81;;;6.18;51.95
40285;BME280;25997;50.214;19.354;2023-02-15T09:53:16;99189.69;;;6.28;51.72
40285;BME280;25997;50.214;19.354;2023-02-15T09:56:30;99191.03;;;6.36;51.84
40285;BME280;25997;50.214;19.354;2023-02-15T09:59:43;99182.16;;;6.48;51.58
40285;BME280;25997;50.214;19.354;2023-02-15T10:03:11;99183.06;;;6.63;51.25
40285;BME280;25997;50.214;19.354;2023-02-15T10:06:32;99186.22;;;6.72;50.37
40285;BME280;25997;50.214;19.354;2023-02-15T10:09:55;99183.97;;;6.78;50.88
40285;BME280;25997;50.214;19.354;2023-02-15T10:13:15;99182.38;;;6.94;50.69
40285;BME280;25997;50.214;19.354;2023-02-15T10:16:25;99181.72;;;6.98;50.93
40285;BME280;25997;50.214;19.354;2023-02-15T10:19:35;99172.53;;;7.20;49.72
40285;BME280;25997;50.214;19.354;2023-02-15T10:22:49;99170.09;;;7.53;51.51
40285;BME280;25997;50.214;19.354;2023-02-15T10:26:03;99163.03;;;7.98;50.94
40285;BME280;25997;50.214;19.354;2023-02-15T10:29:22;99163.97;;;8.64;51.09
40285;BME280;25997;50.214;19.354;2023-02-15T10:32:34;99166.63;;;8.82;49.01
40285;BME280;25997;50.214;19.354;2023-02-15T10:35:46;99156.28;;;9.01;50.03
40285;BME280;25997;50.214;19.354;2023-02-15T10:39:00;99161.50;;;9.54;49.57
40285;BME280;25997;50.214;19.354;2023-02-15T10:42:09;99158.97;;;9.92;48.57
40285;BME280;25997;50.214;19.354;2023-02-15T10:45:22;99146.47;;;10.23;46.23
40285;BME280;25997;50.214;19.354;2023-02-15T10:48:54;99144.97;;;9.91;48.38
40285;BME280;25997;50.214;19.354;2023-02-15T10:52:11;99138.50;;;9.66;48.94
40285;BME280;25997;50.214;19.354;2023-02-15T10:55:27;99129.00;;;9.68;48.58
40285;BME280;25997;50.214;19.354;2023-02-15T10:58:49;99128.19;;;9.88;46.99
40285;BME280;25997;50.214;19.354;2023-02-15T11:01:58;99128.31;;;10.09;48.08
40285;BME280;25997;50.214;19.354;2023-02-15T11:05:24;99123.50;;;10.38;46.25
40285;BME280;25997;50.214;19.354;2023-02-15T11:08:34;99119.81;;;10.54;47.28
40285;BME280;25997;50.214;19.354;2023-02-15T11:11:39;99125.69;;;10.88;47.01
40285;BME280;25997;50.214;19.354;2023-02-15T11:14:46;99121.97;;;11.04;46.42
40285;BME280;25997;50.214;19.354;2023-02-15T11:17:55;99113.22;;;11.24;45.35
40285;BME280;25997;50.214;19.354;2023-02-15T11:21:03;99117.72;;;11.07;45.80
40285;BME280;25997;50.214;19.354;2023-02-15T11:24:11;99099.88;;;11.19;45.30
40285;BME280;25997;50.214;19.354;2023-02-15T11:27:19;99104.69;;;11.52;45.04
40285;BME280;25997;50.214;19.354;2023-02-15T11:30:25;99100.09;;;11.46;44.70
40285;BME280;25997;50.214;19.354;2023-02-15T11:33:30;99096.97;;;11.56;44.32
40285;BME280;25997;50.214;19.354;2023-02-15T11:36:38;99097.13;;;11.38;44.01
40285;BME280;25997;50.214;19.354;2023-02-15T11:39:44;99086.19;;;11.72;44.66
40285;BME280;25997;50.214;19.354;2023-02-15T11:42:55;99089.31;;;12.08;43.62
40285;BME280;25997;50.214;19.354;2023-02-15T11:45:59;99080.81;;;12.39;43.87
40285;BME280;25997;50.214;19.354;2023-02-15T11:49:01;99081.50;;;12.83;43.19
40285;BME280;25997;50.214;19.354;2023-02-15T11:52:06;99071.31;;;13.19;42.41
40285;BME280;25997;50.214;19.354;2023-02-15T11:55:15;99079.59;;;13.31;42.09
40285;BME280;25997;50.214;19.354;2023-02-15T11:58:28;99064.66;;;13.60;41.12
40285;BME280;25997;50.214;19.354;2023-02-15T12:01:34;99068.97;;;13.56;41.50
40285;BME280;25997;50.214;19.354;2023-02-15T12:04:40;99064.28;;;13.76;41.18
40285;BME280;25997;50.214;19.354;2023-02-15T12:07:48;99064.69;;;13.90;41.17
40285;BME280;25997;50.214;19.354;2023-02-15T12:11:05;99056.31;;;14.03;39.35
40285;BME280;25997;50.214;19.354;2023-02-15T12:14:10;99050.13;;;14.02;40.41
40285;BME280;25997;50.214;19.354;2023-02-15T12:17:17;99049.25;;;14.02;40.36
40285;BME280;25997;50.214;19.354;2023-02-15T12:20:29;99046.03;;;14.13;39.20
40285;BME280;25997;50.214;19.354;2023-02-15T12:23:33;99040.31;;;14.28;39.85
40285;BME280;25997;50.214;19.354;2023-02-15T12:26:38;99037.47;;;14.53;40.08
40285;BME280;25997;50.214;19.354;2023-02-15T12:29:42;99035.03;;;14.62;39.65
40285;BME280;25997;50.214;19.354;2023-02-15T12:32:49;99040.91;;;14.82;39.18
40285;BME280;25997;50.214;19.354;2023-02-15T12:35:58;99035.78;;;14.89;38.98
40285;BME280;25997;50.214;19.354;2023-02-15T12:39:24;99035.31;;;15.43;36.18
40285;BME280;25997;50.214;19.354;2023-02-15T12:42:41;99023.22;;;15.94;36.54
40285;BME280;25997;50.214;19.354;2023-02-15T12:45:44;99024.22;;;15.99;37.60
40285;BME280;25997;50.214;19.354;2023-02-15T12:48:47;99022.13;;;16.28;37.34
40285;BME280;25997;50.214;19.354;2023-02-15T12:52:24;99019.03;;;16.07;34.66
40285;BME280;25997;50.214;19.354;2023-02-15T12:55:27;99007.75;;;15.72;37.48
40285;BME280;25997;50.214;19.354;2023-02-15T12:58:33;99010.97;;;15.60;37.64
40285;BME280;25997;50.214;19.354;2023-02-15T13:01:36;99007.66;;;15.69;37.41
40285;BME280;25997;50.214;19.354;2023-02-15T13:04:47;98994.28;;;16.05;36.06
40285;BME280;25997;50.214;19.354;2023-02-15T13:07:53;98994.81;;;16.32;36.93
40285;BME280;25997;50.214;19.354;2023-02-15T13:11:00;98996.50;;;16.73;36.20
40285;BME280;25997;50.214;19.354;2023-02-15T13:14:16;98982.78;;;17.01;33.93
40285;BME280;25997;50.214;19.354;2023-02-15T13:17:23;98993.56;;;17.12;35.39
40285;BME280;25997;50.214;19.354;2023-02-15T13:20:30;98991.16;;;17.27;35.36
40285;BME280;25997;50.214;19.354;2023-02-15T13:23:34;98988.31;;;17.16;35.57
40285;BME280;25997;50.214;19.354;2023-02-15T13:26:36;98983.63;;;16.99;34.78
40285;BME280;25997;50.214;19.354;2023-02-15T13:29:43;98976.34;;;16.84;34.16
40285;BME280;25997;50.214;19.354;2023-02-15T13:32:48;98977.41;;;16.98;34.40
40285;BME280;25997;50.214;19.354;2023-02-15T13:36:00;98970.88;;;16.75;33.64
40285;BME280;25997;50.214;19.354;2023-02-15T13:39:14;98972.47;;;16.64;33.60
40285;BME280;25997;50.214;19.354;2023-02-15T13:42:23;98972.53;;;16.69;34.42
40285;BME280;25997;50.214;19.354;2023-02-15T13:45:35;98969.88;;;16.69;32.84
40285;BME280;25997;50.214;19.354;2023-02-15T13:48:45;98965.16;;;16.51;33.72
40285;BME280;25997;50.214;19.354;2023-02-15T13:51:58;98967.31;;;16.73;33.46
40285;BME280;25997;50.214;19.354;2023-02-15T13:55:31;98958.03;;;16.48;30.69
40285;BME280;25997;50.214;19.354;2023-02-15T13:59:15;98955.59;;;16.14;31.02
40285;BME280;25997;50.214;19.354;2023-02-15T14:06:16;98953.75;;;16.58;32.13
40285;BME280;25997;50.214;19.354;2023-02-15T14:09:35;98951.84;;;16.49;32.61
40285;BME280;25997;50.214;19.354;2023-02-15T14:12:53;98947.00;;;16.77;33.02
40285;BME280;25997;50.214;19.354;2023-02-15T14:16:03;98949.50;;;17.23;32.92
40285;BME280;25997;50.214;19.354;2023-02-15T14:19:18;98943.84;;;17.62;31.87
40285;BME280;25997;50.214;19.354;2023-02-15T14:22:30;98937.56;;;17.55;31.51
40285;BME280;25997;50.214;19.354;2023-02-15T14:25:41;98940.34;;;17.03;32.19
40285;BME280;25997;50.214;19.354;2023-02-15T14:28:46;98945.78;;;17.12;29.48
40285;BME280;25997;50.214;19.354;2023-02-15T14:31:55;98936.03;;;16.54;31.92
40285;BME280;25997;50.214;19.354;2023-02-15T14:35:00;98945.00;;;16.13;32.25
40285;BME280;25997;50.214;19.354;2023-02-15T14:38:12;98936.06;;;16.09;30.31
40285;BME280;25997;50.214;19.354;2023-02-15T14:41:20;98927.09;;;16.01;32.49
40285;BME280;25997;50.214;19.354;2023-02-15T14:44:31;98920.91;;;16.02;32.07
40285;BME280;25997;50.214;19.354;2023-02-15T14:47:41;98923.34;;;15.89;32.08
40285;BME280;25997;50.214;19.354;2023-02-15T14:50:47;98926.16;;;15.56;32.17
40285;BME280;25997;50.214;19.354;2023-02-15T14:53:51;98928.19;;;15.67;32.04
40285;BME280;25997;50.214;19.354;2023-02-15T14:57:22;98919.53;;;15.74;31.24
40285;BME280;25997;50.214;19.354;2023-02-15T15:00:38;98922.56;;;15.51;31.09
40285;BME280;25997;50.214;19.354;2023-02-15T15:03:43;98921.38;;;15.38;32.22
40285;BME280;25997;50.214;19.354;2023-02-15T15:06:59;98919.56;;;15.36;32.21
40285;BME280;25997;50.214;19.354;2023-02-15T15:10:23;98911.25;;;15.59;32.11
40285;BME280;25997;50.214;19.354;2023-02-15T15:13:54;98909.19;;;15.87;30.89
40285;BME280;25997;50.214;19.354;2023-02-15T15:16:57;98914.50;;;15.88;32.24
40285;BME280;25997;50.214;19.354;2023-02-15T15:20:02;98904.66;;;15.83;31.90
40285;BME280;25997;50.214;19.354;2023-02-15T15:23:38;98897.34;;;15.69;31.15
40285;BME280;25997;50.214;19.354;2023-02-15T15:26:42;98906.22;;;15.31;32.29
40285;BME280;25997;50.214;19.354;2023-02-15T15:29:48;98902.38;;;14.78;32.43
40285;BME280;25997;50.214;19.354;2023-02-15T15:32:57;98898.34;;;14.22;32.99
40285;BME280;25997;50.214;19.354;2023-02-15T15:36:17;98896.28;;;13.78;33.44
40285;BME280;25997;50.214;19.354;2023-02-15T15:39:43;98899.91;;;13.50;33.43
40285;BME280;25997;50.214;19.354;2023-02-15T15:50:12;98898.56;;;12.24;34.86
40285;BME280;25997;50.214;19.354;2023-02-15T15:53:19;98896.78;;;11.49;36.05
40285;BME280;25997;50.214;19.354;2023-02-15T15:56:24;98898.00;;;10.66;37.11
40285;BME280;25997;50.214;19.354;2023-02-15T15:59:31;98895.53;;;10.06;37.93
40285;BME280;25997;50.214;19.354;2023-02-15T16:02:49;98894.66;;;9.47;39.12
40285;BME280;25997;50.214;19.354;2023-02-15T16:05:53;98891.75;;;9.02;39.53
40285;BME280;25997;50.214;19.354;2023-02-15T16:08:56;98889.31;;;8.69;39.95
40285;BME280;25997;50.214;19.354;2023-02-15T16:12:00;98894.66;;;8.35;40.35
40285;BME280;25997;50.214;19.354;2023-02-15T16:15:13;98893.22;;;8.06;40.87
40285;BME280;25997;50.214;19.354;2023-02-15T16:18:21;98897.88;;;7.78;41.14
40285;BME280;25997;50.214;19.354;2023-02-15T16:21:28;98899.44;;;7.58;41.33
40285;BME280;25997;50.214;19.354;2023-02-15T16:24:57;98899.28;;;7.22;42.46
40285;BME280;25997;50.214;19.354;2023-02-15T16:28:07;98898.59;;;6.93;42.97
40285;BME280;25997;50.214;19.354;2023-02-15T16:31:13;98899.13;;;6.86;43.22
40285;BME280;25997;50.214;19.354;2023-02-15T16:34:17;98890.84;;;6.79;43.52
40285;BME280;25997;50.214;19.354;2023-02-15T16:37:22;98896.47;;;6.70;43.75
40285;BME280;25997;50.214;19.354;2023-02-15T16:40:43;98898.31;;;6.57;44.34
40285;BME280;25997;50.214;19.354;2023-02-15T16:43:49;98894.28;;;6.47;44.00
40285;BME280;25997;50.214;19.354;2023-02-15T16:46:53;98889.38;;;6.22;44.61